Time;durP1;ratioP1;P1;durP2;ratioP2;P2;SDS_P1;SDS_P2;PMS_P1;PMS_P2;Temp;Humidity;BMP_temperature;BMP_pressure;BME280_temperature;BME280_humidity;BME280_pressure;Samples;Min_cycle;Max_cycle;Signal;HPM_P1;HPM_P2
2022/10/04 00:01:52;;;;;;;12.77;7.15;;;;;;;14.00;98.04;99052.66;5065588;28;20041;-95
2022/10/04 00:04:25;;;;;;;15.32;7.55;;;;;;;13.88;99.00;99045.94;5063041;28;20426;-95
2022/10/04 00:06:57;;;;;;;14.00;8.32;;;;;;;13.90;100.00;99049.41;5099829;28;20044;-95
2022/10/04 00:09:28;;;;;;;17.42;8.02;;;;;;;14.03;100.00;99047.19;5105766;28;20551;-94
2022/10/04 00:11:56;;;;;;;16.98;7.72;;;;;;;13.91;100.00;99052.03;5105768;28;20039;-93
2022/10/04 00:14:29;;;;;;;16.08;8.70;;;;;;;14.03;100.00;99079.25;5105505;28;20040;-96
2022/10/04 00:17:00;;;;;;;15.10;8.55;;;;;;;13.76;100.00;99037.44;5102616;28;20044;-95
2022/10/04 00:19:45;;;;;;;16.75;8.82;;;;;;;13.77;100.00;99049.03;5103011;28;20127;-93
2022/10/04 00:22:23;;;;;;;17.52;10.00;;;;;;;13.75;100.00;99048.19;5101351;28;20040;-95
2022/10/04 00:25:19;;;;;;;16.27;9.63;;;;;;;13.77;100.00;99065.91;5082523;28;20049;-95
2022/10/04 00:28:15;;;;;;;17.95;9.45;;;;;;;13.96;100.00;99091.97;5100445;28;20584;-93
2022/10/04 00:30:41;;;;;;;19.45;10.65;;;;;;;13.60;100.00;99049.59;5100901;28;20047;-95
2022/10/04 00:33:07;;;;;;;15.70;9.13;;;;;;;13.66;100.00;99073.44;5095965;28;20051;-95
2022/10/04 00:35:49;;;;;;;18.23;9.30;;;;;;;13.46;100.00;99059.88;5101634;28;20044;-94
2022/10/04 00:38:25;;;;;;;19.55;9.52;;;;;;;13.34;100.00;99055.84;5102448;28;20461;-95
2022/10/04 00:40:56;;;;;;;18.45;9.32;;;;;;;13.26;100.00;99057.84;5103093;28;20142;-96
2022/10/04 00:43:27;;;;;;;12.40;8.10;;;;;;;13.29;100.00;99080.03;5102123;28;20044;-93
2022/10/04 00:45:58;;;;;;;13.77;8.70;;;;;;;13.08;100.00;99065.56;5100446;28;20044;-94
2022/10/04 00:48:32;;;;;;;11.80;8.30;;;;;;;12.93;100.00;99066.91;5101907;28;20048;-94
2022/10/04 00:51:06;;;;;;;18.00;9.02;;;;;;;12.86;100.00;99065.38;5091143;28;20093;-93
2022/10/04 00:53:46;;;;;;;15.88;8.57;;;;;;;12.83;100.00;99069.94;5102439;28;20051;-94
2022/10/04 00:56:19;;;;;;;22.55;9.02;;;;;;;12.88;100.00;99095.56;5101421;28;20041;-96
2022/10/04 00:59:16;;;;;;;14.57;7.82;;;;;;;12.87;100.00;99104.47;5101312;28;20047;-95
2022/10/04 01:01:46;;;;;;;20.20;10.20;;;;;;;12.85;100.00;99089.44;5101357;28;20063;-94
2022/10/04 01:04:27;;;;;;;19.13;10.40;;;;;;;12.86;100.00;99073.38;5101010;28;20050;-94
2022/10/04 01:06:57;;;;;;;21.27;11.25;;;;;;;12.95;100.00;99059.72;5101905;28;20562;-93
2022/10/04 01:09:24;;;;;;;21.35;10.98;;;;;;;13.16;100.00;99097.31;5101967;28;20522;-94
2022/10/04 01:12:00;;;;;;;23.60;11.75;;;;;;;13.13;100.00;99084.09;5102962;28;20044;-94
2022/10/04 01:14:35;;;;;;;23.67;10.60;;;;;;;13.06;100.00;99083.41;5106228;28;20040;-93
2022/10/04 01:17:02;;;;;;;22.33;11.00;;;;;;;13.14;100.00;99077.81;5105682;28;20055;-94
2022/10/04 01:19:33;;;;;;;26.05;10.82;;;;;;;13.12;100.00;99066.34;5106899;28;20052;-94
2022/10/04 01:22:10;;;;;;;23.00;11.95;;;;;;;13.05;100.00;99054.09;5107029;28;20079;-94
2022/10/04 01:24:40;;;;;;;17.75;9.25;;;;;;;12.99;100.00;99056.94;5107207;28;20052;-93
2022/10/04 01:27:33;;;;;;;17.00;9.70;;;;;;;12.88;100.00;99051.97;5106567;28;20558;-95
2022/10/04 01:30:01;;;;;;;20.27;9.95;;;;;;;12.87;100.00;99071.56;5109936;28;20575;-95
2022/10/04 01:32:28;;;;;;;17.98;9.43;;;;;;;12.71;100.00;99055.19;5109857;28;20503;-95
2022/10/04 01:34:55;;;;;;;18.90;9.57;;;;;;;12.60;100.00;99049.28;5108258;28;20070;-93
2022/10/04 01:37:25;;;;;;;16.67;9.27;;;;;;;12.63;100.00;99059.88;5109209;28;20037;-95
2022/10/04 01:39:53;;;;;;;19.77;10.98;;;;;;;12.70;100.00;99056.94;5109197;28;20101;-95
2022/10/04 01:42:26;;;;;;;26.20;12.30;;;;;;;12.75;100.00;99062.16;5108149;28;20036;-95
2022/10/04 01:45:01;;;;;;;18.17;11.68;;;;;;;12.77;100.00;99054.97;5107312;28;20074;-95
2022/10/04 01:47:34;;;;;;;23.88;12.60;;;;;;;12.79;100.00;99061.13;5107269;28;20142;-95
2022/10/04 01:50:10;;;;;;;22.65;12.48;;;;;;;12.73;100.00;99058.69;5107499;28;20048;-95
2022/10/04 01:52:43;;;;;;;24.95;12.10;;;;;;;12.72;100.00;99052.44;5108579;28;20036;-95
2022/10/04 01:55:15;;;;;;;23.30;12.50;;;;;;;12.90;100.00;99095.50;5109136;28;20052;-95
2022/10/04 01:57:47;;;;;;;31.00;11.90;;;;;;;12.63;100.00;99060.75;5107366;28;20108;-94
2022/10/04 02:00:17;;;;;;;22.77;11.88;;;;;;;12.56;100.00;99056.53;5108379;28;20043;-95
2022/10/04 02:02:48;;;;;;;21.60;10.98;;;;;;;12.48;100.00;99055.88;5109161;28;20135;-95
2022/10/04 02:05:29;;;;;;;19.17;10.57;;;;;;;12.70;100.00;99102.31;5108335;28;20052;-95
2022/10/04 02:07:56;;;;;;;23.60;10.55;;;;;;;12.41;100.00;99049.00;5108552;28;20040;-95
2022/10/04 02:10:24;;;;;;;16.02;10.30;;;;;;;12.58;100.00;99096.47;5108719;28;20048;-94
2022/10/04 02:12:53;;;;;;;19.95;10.23;;;;;;;12.35;100.00;99055.38;5107452;28;20048;-94
2022/10/04 02:15:25;;;;;;;17.13;10.43;;;;;;;12.31;100.00;99048.38;5107679;28;20044;-94
2022/10/04 02:17:53;;;;;;;16.52;9.88;;;;;;;12.30;100.00;99038.66;5107599;28;20051;-95
2022/10/04 02:20:24;;;;;;;17.70;10.32;;;;;;;12.27;100.00;99044.94;5107159;28;20048;-92
2022/10/04 02:22:55;;;;;;;20.00;10.35;;;;;;;12.19;100.00;99041.63;5106168;28;20573;-95
2022/10/04 02:25:25;;;;;;;17.98;9.32;;;;;;;12.34;100.00;99066.97;5106302;28;20044;-96
2022/10/04 02:27:53;;;;;;;18.70;10.38;;;;;;;12.17;100.00;99046.13;5106024;28;20504;-96
2022/10/04 02:30:19;;;;;;;22.52;10.30;;;;;;;12.25;100.00;99072.53;5104846;28;20047;-94
2022/10/04 02:35:47;;;;;;;21.10;10.40;;;;;;;12.21;100.00;99052.22;5077131;27;20391;-95
2022/10/04 02:38:19;;;;;;;26.33;11.03;;;;;;;12.22;100.00;99054.84;5078824;28;20367;-94
2022/10/04 02:40:55;;;;;;;20.73;10.88;;;;;;;12.23;100.00;99051.28;5079408;28;20080;-93
2022/10/04 02:43:27;;;;;;;19.27;11.18;;;;;;;12.29;100.00;99066.22;5078628;28;20051;-94
2022/10/04 02:46:03;;;;;;;20.33;10.52;;;;;;;12.58;100.00;99101.81;5077694;28;20037;-95
2022/10/04 02:48:36;;;;;;;20.67;11.43;;;;;;;12.35;100.00;99070.50;5079740;28;20049;-94
2022/10/04 02:51:18;;;;;;;20.95;11.38;;;;;;;12.40;100.00;99074.75;5079497;28;20049;-95
2022/10/04 02:53:52;;;;;;;18.80;11.15;;;;;;;12.28;100.00;99064.47;5078723;28;20049;-94
2022/10/04 02:56:19;;;;;;;22.42;10.52;;;;;;;12.24;100.00;99066.34;5079445;28;20343;-93
2022/10/04 02:58:45;;;;;;;20.60;10.90;;;;;;;12.34;100.00;99080.31;5080519;28;20049;-96
2022/10/04 03:01:23;;;;;;;18.40;10.35;;;;;;;12.29;100.00;99079.53;5079640;28;20049;-93
2022/10/04 03:03:49;;;;;;;19.02;10.10;;;;;;;12.36;100.00;99065.13;5077711;28;20048;-95
2022/10/04 03:06:19;;;;;;;23.48;11.25;;;;;;;12.48;100.00;99075.41;5076351;28;20080;-93
2022/10/04 03:08:48;;;;;;;21.45;11.18;;;;;;;12.39;100.00;99080.16;5077340;28;20666;-93
2022/10/04 03:11:15;;;;;;;;;;;;;;;12.54;100.00;99109.91;5079080;28;20594;-94
2022/10/04 03:13:46;;;;;;;23.95;11.20;;;;;;;12.26;100.00;99068.97;5077712;28;20340;-94
2022/10/04 03:16:13;;;;;;;21.95;11.23;;;;;;;12.35;100.00;99094.50;5078247;28;20410;-94
2022/10/04 03:18:39;;;;;;;25.52;11.50;;;;;;;12.13;100.00;99076.44;5076860;28;20044;-93
2022/10/04 03:21:07;;;;;;;25.27;11.48;;;;;;;12.29;100.00;99112.41;5077038;28;20045;-94
2022/10/04 03:23:36;;;;;;;27.25;12.55;;;;;;;12.05;100.00;99081.13;5079229;28;20041;-94
2022/10/04 03:26:08;;;;;;;;;;;;;;;12.17;100.00;99127.91;5081063;28;20040;-93
2022/10/04 03:28:37;;;;;;;22.63;12.63;;;;;;;11.84;100.00;99077.22;5077994;28;19920;-93
2022/10/04 03:31:03;;;;;;;24.67;13.13;;;;;;;11.82;100.00;99085.28;5077462;28;20461;-94
2022/10/04 03:33:30;;;;;;;24.38;12.50;;;;;;;11.91;100.00;99122.34;5078957;28;20281;-94
2022/10/04 03:35:59;;;;;;;18.30;10.73;;;;;;;11.92;100.00;99131.22;5079707;28;20084;-94
2022/10/04 03:38:27;;;;;;;19.63;10.50;;;;;;;11.61;100.00;99088.50;5080051;28;20064;-94
2022/10/04 03:40:57;;;;;;;20.80;10.32;;;;;;;11.53;100.00;99096.69;5079842;28;20056;-94
2022/10/04 03:43:27;;;;;;;18.70;10.02;;;;;;;11.62;100.00;99120.41;5079532;28;20371;-94
2022/10/04 03:45:54;;;;;;;16.27;9.23;;;;;;;11.43;100.00;99100.50;5072709;28;20120;-94
2022/10/04 03:48:30;;;;;;;16.77;10.27;;;;;;;11.51;100.00;99118.06;5065568;28;20052;-92
2022/10/04 03:50:57;;;;;;;24.60;11.15;;;;;;;11.54;100.00;99118.84;5066194;28;20060;-94
2022/10/04 03:53:28;;;;;;;19.10;10.23;;;;;;;11.44;100.00;99110.25;5065312;28;20128;-94
2022/10/04 03:55:57;;;;;;;20.98;9.50;;;;;;;11.42;100.00;99106.75;5067359;28;20067;-95
2022/10/04 03:58:25;;;;;;;15.02;8.20;;;;;;;11.35;100.00;99094.50;5066802;28;20067;-93
2022/10/04 04:01:08;;;;;;;11.95;7.82;;;;;;;11.31;100.00;99102.53;5065422;28;20056;-93
2022/10/04 04:03:45;;;;;;;15.23;8.77;;;;;;;11.47;100.00;99142.09;5064614;28;20466;-94
2022/10/04 04:06:16;;;;;;;18.88;9.25;;;;;;;11.22;100.00;99101.91;5065644;28;20041;-93
2022/10/04 04:08:46;;;;;;;16.50;8.45;;;;;;;11.24;100.00;99114.28;5066208;28;20045;-91
2022/10/04 04:11:19;;;;;;;16.80;8.70;;;;;;;11.07;100.00;99097.81;5064932;28;20041;-93
2022/10/04 04:13:53;;;;;;;18.60;8.85;;;;;;;11.03;100.00;99096.16;5065212;28;20433;-90
2022/10/04 04:16:24;;;;;;;13.55;8.63;;;;;;;11.09;100.00;99109.31;5065134;28;20056;-94
2022/10/04 04:18:54;;;;;;;18.50;8.60;;;;;;;11.13;100.00;99124.31;5066051;28;20052;-93
2022/10/04 04:21:28;;;;;;;15.70;8.52;;;;;;;11.23;100.00;99143.56;5064862;28;20052;-93
2022/10/04 04:23:57;;;;;;;14.43;8.98;;;;;;;10.99;100.00;99110.44;5065250;28;20041;-93
2022/10/04 04:26:35;;;;;;;14.88;9.15;;;;;;;10.95;100.00;99109.66;5065710;28;20056;-94
2022/10/04 04:29:07;;;;;;;17.48;9.48;;;;;;;11.08;100.00;99124.41;5064520;28;20053;-93
2022/10/04 04:31:37;;;;;;;19.30;9.57;;;;;;;10.99;100.00;99115.75;5064664;28;20052;-93
2022/10/04 04:34:19;;;;;;;17.95;10.18;;;;;;;10.96;100.00;99113.19;5063713;28;20106;-94
2022/10/04 04:36:58;;;;;;;19.13;9.57;;;;;;;10.95;100.00;99116.72;5064318;28;20072;-93
2022/10/04 04:42:31;;;;;;;16.80;9.00;;;;;;;11.07;100.00;99148.41;5126149;27;2195736;-93
2022/10/04 04:45:00;;;;;;;18.70;9.70;;;;;;;11.07;100.00;99154.59;5182724;27;20053;-93
2022/10/04 04:47:29;;;;;;;17.25;8.65;;;;;;;10.87;100.00;99120.44;5182288;27;20103;-94
2022/10/04 04:49:57;;;;;;;18.90;9.35;;;;;;;10.94;100.00;99125.63;5182155;27;20042;-94
2022/10/04 04:52:30;;;;;;;16.63;9.50;;;;;;;10.92;100.00;99125.66;5183568;27;20129;-93
2022/10/04 04:54:56;;;;;;;20.17;9.18;;;;;;;10.87;100.00;99131.09;5183379;27;20388;-94
2022/10/04 04:57:25;;;;;;;15.93;9.30;;;;;;;11.08;100.00;99166.09;5184573;27;20053;-94
2022/10/04 04:59:57;;;;;;;15.75;9.30;;;;;;;10.82;100.00;99133.00;5184466;27;20491;-94
2022/10/04 05:02:33;;;;;;;21.45;10.30;;;;;;;10.88;100.00;99146.13;5184961;27;20085;-94
2022/10/04 05:05:21;;;;;;;18.83;9.43;;;;;;;11.06;100.00;99182.13;5185618;27;20053;-95
2022/10/04 05:08:03;;;;;;;14.45;8.73;;;;;;;10.88;100.00;99158.56;5165467;27;20065;-96
2022/10/04 05:10:31;;;;;;;14.35;8.55;;;;;;;10.77;100.00;99149.94;5165567;27;20039;-93
2022/10/04 05:13:01;;;;;;;15.73;9.65;;;;;;;10.83;100.00;99168.44;5165159;27;20047;-93
2022/10/04 05:15:31;;;;;;;;;;;;;;;11.01;100.00;99196.44;5164711;27;20047;-94
2022/10/04 05:17:58;;;;;;;18.45;10.38;;;;;;;11.07;100.00;99193.63;5163529;27;19915;-95
2022/10/04 05:20:25;;;;;;;20.90;11.27;;;;;;;10.87;100.00;99152.38;5181785;27;20055;-94
2022/10/04 05:22:51;;;;;;;23.95;12.32;;;;;;;11.00;100.00;99163.63;5185693;27;20054;-94
2022/10/04 05:25:25;;;;;;;23.92;12.25;;;;;;;10.97;100.00;99152.16;5184422;27;20042;-95
2022/10/04 05:27:53;;;;;;;25.05;11.55;;;;;;;11.04;100.00;99153.81;5188324;27;20077;-93
2022/10/04 05:30:36;;;;;;;20.67;10.77;;;;;;;11.11;100.00;99174.03;5186857;27;20046;-94
2022/10/04 05:33:06;;;;;;;20.65;11.23;;;;;;;11.02;100.00;99160.94;5188382;27;20054;-94
2022/10/04 05:35:49;;;;;;;25.63;11.57;;;;;;;11.03;100.00;99157.34;5187705;27;20047;-95
2022/10/04 05:38:27;;;;;;;21.10;11.15;;;;;;;11.06;100.00;99163.50;5187452;27;20118;-95
2022/10/04 05:41:00;;;;;;;27.27;13.52;;;;;;;11.34;100.00;99172.59;5184263;27;20050;-94
2022/10/04 05:43:43;;;;;;;28.20;13.02;;;;;;;11.28;100.00;99174.50;5185021;27;20066;-96
2022/10/04 05:46:18;;;;;;;25.98;13.43;;;;;;;11.39;100.00;99181.38;5183217;27;20043;-95
2022/10/04 05:48:47;;;;;;;26.20;13.02;;;;;;;11.38;100.00;99183.16;5182528;27;20053;-94
2022/10/04 05:51:18;;;;;;;23.38;12.60;;;;;;;11.44;100.00;99187.47;5183273;27;20104;-94
2022/10/04 05:53:45;;;;;;;25.02;13.07;;;;;;;11.43;100.00;99180.41;5168150;27;20039;-93
2022/10/04 05:56:28;;;;;;;24.98;12.55;;;;;;;11.45;100.00;99182.13;5166865;27;20053;-91
2022/10/04 05:59:05;;;;;;;33.03;14.65;;;;;;;11.42;100.00;99184.81;5168746;27;20059;-95
2022/10/04 06:01:41;;;;;;;33.47;15.88;;;;;;;11.40;100.00;99191.97;5168856;27;20038;-95
2022/10/04 06:04:24;;;;;;;41.65;16.05;;;;;;;11.44;100.00;99201.66;5167921;27;20047;-93
2022/10/04 06:06:56;;;;;;;34.60;15.68;;;;;;;11.38;100.00;99196.47;5168874;27;20050;-93
2022/10/04 06:09:42;;;;;;;71.20;16.17;;;;;;;11.41;100.00;99192.88;5167742;27;20035;-94
2022/10/04 06:12:15;;;;;;;37.10;15.70;;;;;;;11.40;100.00;99199.97;5168045;27;20394;-93
2022/10/04 06:15:02;;;;;;;34.20;15.85;;;;;;;11.44;100.00;99214.97;5168979;27;20060;-95
2022/10/04 06:17:52;;;;;;;28.98;15.00;;;;;;;11.54;100.00;99226.28;5169143;27;20062;-94
2022/10/04 06:21:05;;;;;;;37.30;16.88;;;;;;;11.49;100.00;99212.19;5168078;27;20066;-93
2022/10/04 06:23:36;;;;;;;42.67;15.75;;;;;;;11.51;100.00;99213.03;5168590;27;20487;-96
2022/10/04 06:26:09;;;;;;;50.90;17.05;;;;;;;11.59;100.00;99224.38;5166876;27;20039;-95
2022/10/04 06:28:38;;;;;;;33.45;16.45;;;;;;;11.66;100.00;99233.09;5167662;27;20103;-95
2022/10/04 06:31:25;;;;;;;31.92;15.50;;;;;;;11.71;100.00;99237.41;5166958;27;20049;-95
2022/10/04 06:34:11;;;;;;;30.02;14.00;;;;;;;11.67;100.00;99217.09;5166462;27;20039;-94
2022/10/04 06:37:04;;;;;;;30.63;15.10;;;;;;;11.72;100.00;99227.63;5165730;27;20043;-92
2022/10/04 06:39:48;;;;;;;32.28;14.98;;;;;;;11.85;100.00;99222.88;5169000;27;20057;-96
2022/10/04 06:42:33;;;;;;;30.58;15.35;;;;;;;12.02;100.00;99247.34;5168424;27;20054;-95
2022/10/04 06:45:18;;;;;;;33.15;15.90;;;;;;;12.32;100.00;99261.69;5168090;27;20118;-95
2022/10/04 06:48:14;;;;;;;38.92;17.80;;;;;;;12.08;100.00;99247.19;5169402;27;20039;-94
2022/10/04 06:50:49;;;;;;;33.83;16.77;;;;;;;12.36;100.00;99286.47;5168103;27;20062;-95
2022/10/04 06:53:41;;;;;;;32.85;14.82;;;;;;;12.43;100.00;99266.72;5171589;27;20039;-94
2022/10/04 06:56:57;;;;;;;28.73;15.07;;;;;;;12.68;100.00;99280.25;5170720;27;20027;-95
2022/10/04 06:59:47;;;;;;;32.45;14.15;;;;;;;12.70;100.00;99270.41;5146677;27;20403;-95
2022/10/04 07:39:55;;;;;;;;;;;;;;;;;;;;;
2022/10/04 08:12:16;;;;;;;9.85;5.30;;;;;;;16.36;78.28;99254.09;6282195;22;1566046;-95
2022/10/04 08:16:02;;;;;;;;;;;;;;;;;;;;;
2022/10/04 08:19:37;;;;;;;;;;;;;;;;;;;;;
2022/10/04 08:22:53;;;;;;;10.93;5.80;;;;;;;16.68;79.62;99276.00;6352736;22;20518;-94
2022/10/04 08:26:59;;;;;;;10.10;6.25;;;;;;;16.70;79.63;99258.88;6167399;23;20028;-94
2022/10/04 08:30:24;;;;;;;10.18;5.80;;;;;;;16.97;82.68;99282.78;5994727;24;20061;-94
2022/10/04 08:53:52;;;;;;;9.10;5.00;;;;;;;18.33;71.34;99298.78;6229036;23;20026;-92
2022/10/04 08:56:48;;;;;;;11.18;5.88;;;;;;;18.50;70.45;99312.25;6255365;23;20020;-92
2022/10/04 08:59:33;;;;;;;7.22;5.00;;;;;;;18.39;68.52;99298.44;6255556;23;20020;-92
2022/10/04 09:02:27;;;;;;;9.20;5.55;;;;;;;18.47;69.79;99298.94;6255640;23;20091;-94
2022/10/04 09:05:17;;;;;;;9.20;5.78;;;;;;;18.71;69.85;99298.63;6255903;23;20069;-93
2022/10/04 09:08:16;;;;;;;10.80;5.47;;;;;;;18.88;68.61;99313.00;6255808;23;20150;-92
2022/10/04 09:10:57;;;;;;;9.00;5.65;;;;;;;18.95;67.42;99301.88;6255826;23;20023;-94
2022/10/04 09:13:39;;;;;;;8.70;5.70;;;;;;;19.05;66.87;99293.22;6256845;23;20102;-93
2022/10/04 09:16:16;;;;;;;13.23;5.47;;;;;;;19.13;66.65;99292.84;6257415;23;20023;-96
2022/10/04 09:18:50;;;;;;;10.45;5.50;;;;;;;19.37;66.82;99308.66;6257000;23;20016;-92
2022/10/04 09:21:27;;;;;;;11.38;6.40;;;;;;;19.27;68.12;99292.94;6260143;22;20019;-94
2022/10/04 09:24:18;;;;;;;9.65;5.97;;;;;;;19.03;68.76;99297.84;6255979;23;20019;-95
2022/10/04 09:26:54;;;;;;;10.40;6.05;;;;;;;19.16;68.81;99284.56;6256905;23;20460;-93
2022/10/04 09:29:51;;;;;;;9.70;6.05;;;;;;;19.42;68.13;99307.41;6256395;23;20016;-95
2022/10/04 09:33:08;;;;;;;10.38;6.97;;;;;;;19.57;67.11;99302.16;6258221;23;20020;-95
2022/10/04 09:36:07;;;;;;;15.50;6.80;;;;;;;19.54;66.53;99283.41;6106642;23;20359;-94
2022/10/04 09:39:14;;;;;;;12.95;6.78;;;;;;;19.48;66.79;99295.44;6107429;23;20190;-95
2022/10/04 09:41:57;;;;;;;10.70;6.68;;;;;;;19.48;67.00;99269.31;6048520;23;20023;-96
2022/10/04 09:44:52;;;;;;;13.30;7.10;;;;;;;19.47;66.19;99270.28;6050389;23;20016;-94
2022/10/04 09:47:53;;;;;;;14.02;7.68;;;;;;;19.66;66.32;99270.13;6048884;23;20079;-95
2022/10/04 09:50:42;;;;;;;18.67;8.20;;;;;;;20.00;65.82;99291.66;6046394;23;20414;-95
2022/10/04 09:53:38;;;;;;;16.38;8.55;;;;;;;19.69;66.05;99258.28;6044880;23;20046;-94
2022/10/04 09:56:25;;;;;;;15.30;7.20;;;;;;;20.04;66.23;99277.91;6044681;23;20457;-96
2022/10/04 09:59:24;;;;;;;15.27;7.57;;;;;;;20.02;64.14;99260.91;6046971;23;20046;-94
2022/10/04 10:02:27;;;;;;;14.65;7.00;;;;;;;19.87;63.28;99262.66;6043838;23;20362;-95
2022/10/04 10:05:12;;;;;;;15.60;7.82;;;;;;;19.96;64.35;99266.66;6041841;23;20420;-95
2022/10/04 10:07:46;;;;;;;14.15;7.07;;;;;;;20.10;64.98;99265.84;6046728;23;20019;-95
2022/10/04 10:13:39;;;;;;;12.75;7.38;;;;;;;20.27;63.09;99245.97;5100100;27;20388;-94
2022/10/04 10:16:25;;;;;;;8.95;6.40;;;;;;;20.17;60.17;99251.06;5100631;28;20056;-96
2022/10/04 10:19:05;;;;;;;11.48;6.72;;;;;;;19.80;61.51;99269.38;5096083;28;20485;-95
2022/10/04 10:21:54;;;;;;;11.35;6.20;;;;;;;19.69;61.12;99258.28;5097305;28;20079;-95
2022/10/04 10:24:51;;;;;;;12.77;6.35;;;;;;;19.81;62.45;99279.19;5098107;28;20133;-95
2022/10/04 10:27:36;;;;;;;13.27;6.65;;;;;;;19.62;62.11;99251.50;5101403;28;20054;-95
2022/10/04 10:30:23;;;;;;;9.52;5.28;;;;;;;19.74;62.08;99260.78;5103072;28;20505;-94
2022/10/04 10:33:11;;;;;;;13.23;6.25;;;;;;;19.89;62.18;99257.19;5099998;28;20041;-94
2022/10/04 10:36:18;;;;;;;10.45;6.45;;;;;;;20.14;61.94;99277.34;5100999;28;20040;-96
2022/10/04 10:39:00;;;;;;;10.95;6.25;;;;;;;19.99;61.52;99254.81;5073238;28;20049;-96
2022/10/04 10:42:05;;;;;;;11.43;5.85;;;;;;;20.23;60.96;99271.41;5078297;28;20059;-95
2022/10/04 10:45:08;;;;;;;12.40;5.72;;;;;;;20.29;60.21;99268.34;5080534;28;20048;-96
2022/10/04 10:47:49;;;;;;;9.75;4.80;;;;;;;20.26;58.49;99255.91;5065812;28;20044;-96
2022/10/04 10:50:30;;;;;;;19.48;12.30;;;;;;;20.24;57.74;99262.38;5080745;28;20084;-95
2022/10/04 10:53:19;;;;;;;15.95;9.48;;;;;;;20.21;58.57;99278.72;5081691;28;20045;-95
2022/10/04 10:56:18;;;;;;;8.85;5.88;;;;;;;20.31;58.50;99286.19;5081986;28;20044;-95
2022/10/04 10:59:04;;;;;;;9.55;6.22;;;;;;;20.25;59.67;99248.75;5081375;28;20036;-95
2022/10/04 11:02:08;;;;;;;7.65;4.82;;;;;;;20.54;58.95;99286.69;5079796;28;20045;-94
2022/10/04 11:04:48;;;;;;;7.20;4.70;;;;;;;20.49;56.67;99253.66;5000540;28;20051;-95
2022/10/04 11:07:36;;;;;;;9.05;5.05;;;;;;;20.62;57.08;99253.81;5002297;28;20118;-95
2022/10/04 11:10:39;;;;;;;8.80;4.68;;;;;;;20.80;55.98;99254.56;5002051;28;20050;-95
2022/10/04 11:13:47;;;;;;;8.13;4.65;;;;;;;20.92;53.54;99253.78;5001237;28;20110;-95
2022/10/04 11:17:04;;;;;;;11.88;4.85;;;;;;;20.95;53.26;99264.41;4983750;28;20046;-94
2022/10/04 11:20:23;;;;;;;8.38;3.83;;;;;;;20.98;50.71;99253.41;5017517;28;20077;-95
2022/10/04 11:23:41;;;;;;;7.72;4.30;;;;;;;21.21;53.70;99248.38;4992568;28;20373;-96
2022/10/04 11:26:30;;;;;;;;;;;;;;;21.60;53.73;99273.88;4983509;28;20055;-95
2022/10/04 11:29:09;;;;;;;10.90;4.80;;;;;;;21.64;54.90;99246.53;4928100;29;19930;-96
2022/10/04 11:32:01;;;;;;;9.30;4.60;;;;;;;21.95;53.24;99266.19;4925869;29;20048;-95
2022/10/04 11:35:04;;;;;;;12.52;4.80;;;;;;;22.05;52.48;99266.44;4946549;29;20095;-95
2022/10/04 11:37:46;;;;;;;8.60;5.30;;;;;;;22.05;53.12;99237.50;4952358;29;20048;-93
2022/10/04 11:40:41;;;;;;;10.90;5.25;;;;;;;22.07;53.22;99221.16;4956629;28;20039;-96
2022/10/04 11:43:31;;;;;;;10.40;5.70;;;;;;;22.02;52.80;99228.75;4986919;28;20050;-95
2022/10/04 11:46:21;;;;;;;11.52;5.05;;;;;;;21.97;53.97;99218.22;4987056;28;20027;-96
2022/10/04 11:49:01;;;;;;;10.73;5.22;;;;;;;22.05;54.92;99220.38;4982743;28;20134;-95
2022/10/04 11:51:59;;;;;;;8.60;4.60;;;;;;;22.32;53.77;99239.38;4984532;28;20038;-96
2022/10/04 11:54:40;;;;;;;;;;;;;;;22.35;53.44;99241.88;4985820;28;20042;-96
2022/10/04 11:57:23;;;;;;;10.48;4.85;;;;;;;22.28;54.24;99230.56;4996756;28;19917;-94
2022/10/04 11:59:58;;;;;;;10.32;5.13;;;;;;;22.36;53.52;99238.19;5021295;28;20049;-95
2022/10/04 12:02:57;;;;;;;8.05;4.88;;;;;;;22.23;53.37;99230.03;5023489;28;20054;-96
2022/10/04 12:06:05;;;;;;;9.98;5.53;;;;;;;21.97;54.59;99211.91;5054079;28;20047;-94
2022/10/04 12:08:47;;;;;;;13.60;5.93;;;;;;;21.98;55.70;99213.66;5082057;28;20048;-96
2022/10/04 12:15:35;;;;;;;11.63;5.55;;;;;;;22.30;55.29;99230.47;5118645;27;20376;-93
2022/10/04 12:18:25;;;;;;;10.05;5.43;;;;;;;22.20;56.03;99216.66;5117633;28;20032;-93
2022/10/04 12:21:15;;;;;;;10.75;5.13;;;;;;;22.09;56.29;99220.06;5118190;28;20048;-91
2022/10/04 12:24:02;;;;;;;13.13;6.30;;;;;;;22.20;58.07;99232.91;5118368;28;20130;-92
2022/10/04 12:27:01;;;;;;;11.07;6.00;;;;;;;22.39;57.28;99245.25;5110933;28;20040;-93
2022/10/04 12:30:11;;;;;;;9.63;5.75;;;;;;;22.35;55.90;99217.47;5112917;28;20048;-95
2022/10/04 12:32:53;;;;;;;10.13;5.95;;;;;;;22.39;55.79;99210.03;5025300;28;20092;-95
2022/10/04 12:35:30;;;;;;;9.30;5.88;;;;;;;22.52;56.13;99219.03;5051520;28;20045;-94
2022/10/04 12:38:16;;;;;;;8.65;5.78;;;;;;;22.54;55.56;99211.66;5054199;28;20136;-94
2022/10/04 12:40:49;;;;;;;11.68;5.00;;;;;;;22.59;54.20;99201.34;5053739;28;20045;-94
2022/10/04 12:43:21;;;;;;;8.52;5.07;;;;;;;22.75;56.25;99203.88;5054312;28;20048;-94
2022/10/04 12:46:01;;;;;;;8.88;4.50;;;;;;;22.66;54.39;99185.53;5053722;28;20049;-94
2022/10/04 12:48:47;;;;;;;8.98;5.03;;;;;;;22.76;55.38;99197.47;5053634;28;20060;-94
2022/10/04 12:51:35;;;;;;;7.75;5.22;;;;;;;22.64;53.26;99184.78;5053355;28;20049;-95
2022/10/04 12:54:17;;;;;;;7.63;4.88;;;;;;;22.77;52.89;99189.25;5044990;28;20044;-95
2022/10/04 12:56:49;;;;;;;8.98;4.70;;;;;;;22.66;53.38;99180.13;5053511;28;20128;-96
2022/10/04 12:59:34;;;;;;;7.18;4.60;;;;;;;22.79;54.23;99182.81;5054270;28;20461;-95
2022/10/04 13:02:19;;;;;;;12.25;4.70;;;;;;;22.72;54.25;99172.41;5053491;28;20077;-95
2022/10/04 13:04:51;;;;;;;7.90;5.00;;;;;;;22.73;52.93;99174.16;5053889;28;20494;-96
2022/10/04 13:07:35;;;;;;;8.30;4.85;;;;;;;22.77;52.11;99174.81;5094487;28;20488;-94
2022/10/04 13:10:24;;;;;;;7.65;4.47;;;;;;;22.89;51.16;99195.63;5114802;28;20545;-94
2022/10/04 13:13:26;;;;;;;7.53;4.47;;;;;;;22.90;53.11;99204.63;5094616;28;20044;-95
2022/10/04 13:15:58;;;;;;;8.95;4.55;;;;;;;22.75;52.54;99185.78;5114860;28;20043;-94
2022/10/04 13:18:30;;;;;;;8.55;4.38;;;;;;;22.81;55.86;99181.72;5114626;28;20051;-96
2022/10/04 13:21:01;;;;;;;6.95;4.50;;;;;;;22.88;54.50;99182.16;5114039;28;20114;-93
2022/10/04 13:23:41;;;;;;;6.50;4.38;;;;;;;22.89;51.28;99175.78;5115000;28;20044;-95
2022/10/04 13:26:28;;;;;;;8.20;4.43;;;;;;;22.89;52.85;99178.50;5090675;28;20104;-94
2022/10/04 13:29:02;;;;;;;5.63;4.00;;;;;;;22.91;51.50;99196.38;5101446;28;20048;-96
2022/10/04 13:31:33;;;;;;;7.10;4.30;;;;;;;23.02;51.16;99181.22;5099973;28;20055;-95
2022/10/04 13:34:10;;;;;;;7.75;4.28;;;;;;;22.97;51.62;99190.53;5097470;28;20040;-94
2022/10/04 13:36:53;;;;;;;6.53;3.80;;;;;;;23.15;53.03;99204.63;5098916;28;20072;-95
2022/10/04 13:39:44;;;;;;;9.30;4.15;;;;;;;23.25;55.15;99203.97;5099070;28;20048;-96
2022/10/04 13:42:39;;;;;;;7.32;4.50;;;;;;;23.11;53.52;99194.97;5098519;28;20052;-95
2022/10/04 13:45:30;;;;;;;8.48;4.45;;;;;;;23.12;50.78;99207.59;5097397;28;20048;-94
2022/10/04 13:48:12;;;;;;;6.50;4.30;;;;;;;23.18;52.17;99192.69;5098321;28;20048;-94
2022/10/04 13:50:56;;;;;;;7.55;4.47;;;;;;;23.07;50.34;99182.63;5097897;28;20054;-95
2022/10/04 13:56:56;;;;;;;7.30;4.72;;;;;;;23.23;51.27;99181.53;5092063;27;20885;-93
2022/10/04 13:59:34;;;;;;;5.38;4.15;;;;;;;23.26;49.91;99201.16;5092531;28;20119;-94
2022/10/04 14:02:36;;;;;;;6.77;3.90;;;;;;;23.17;50.02;99208.09;5080555;28;20090;-94
2022/10/04 14:05:45;;;;;;;7.43;4.03;;;;;;;23.24;50.58;99204.97;5092179;28;20284;-94
2022/10/04 14:08:20;;;;;;;;;;;;;;;23.22;46.68;99201.50;5050458;28;20136;-95
2022/10/04 14:11:20;;;;;;;10.85;4.30;;;;;;;23.12;47.48;99206.72;5049229;28;19921;-94
2022/10/04 14:14:16;;;;;;;6.68;3.72;;;;;;;22.92;46.88;99192.72;5030781;28;20054;-93